Time;durP1;ratioP1;P1;durP2;ratioP2;P2;SDS_P1;SDS_P2;PMS_P1;PMS_P2;Temp;Humidity;BMP_temperature;BMP_pressure;BME280_temperature;BME280_humidity;BME280_pressure;Samples;Min_cycle;Max_cycle;Signal;HPM_P1;HPM_P2
2023/05/20 00:00:55;;;;;;;8.80;3.67;;;;;;;;;;5058932;28;20113;-82
2023/05/20 00:03:21;;;;;;;10.80;3.45;;;;;;;;;;5045820;28;20040;-82
2023/05/20 00:05:47;;;;;;;9.77;3.90;;;;;;;;;;5062063;28;20058;-82
2023/05/20 00:08:14;;;;;;;9.02;3.75;;;;;;;;;;5043699;28;20307;-81
2023/05/20 00:10:40;;;;;;;9.18;3.65;;;;;;;;;;5039890;28;20063;-82
2023/05/20 00:13:06;;;;;;;10.35;4.32;;;;;;;;;;5074416;27;20044;-82
2023/05/20 00:15:34;;;;;;;12.27;3.85;;;;;;;;;;5074142;28;20047;-82
2023/05/20 00:18:01;;;;;;;10.23;3.90;;;;;;;;;;5074070;27;20047;-82
2023/05/20 00:20:27;;;;;;;11.85;4.43;;;;;;;;;;5039904;28;20044;-82
2023/05/20 00:22:53;;;;;;;12.18;3.88;;;;;;;;;;5065567;28;20040;-82
2023/05/20 00:25:19;;;;;;;13.02;4.75;;;;;;;;;;5043464;28;20233;-82
2023/05/20 00:27:46;;;;;;;11.65;4.28;;;;;;;;;;5056357;28;20521;-82
2023/05/20 00:30:12;;;;;;;12.95;4.57;;;;;;;;;;5057555;28;20051;-82
2023/05/20 00:32:38;;;;;;;9.95;3.95;;;;;;;;;;5056118;28;20040;-82
2023/05/20 00:35:04;;;;;;;15.40;4.13;;;;;;;;;;5058581;28;20926;-82
2023/05/20 00:37:30;;;;;;;14.05;4.28;;;;;;;;;;5038957;28;20047;-82
2023/05/20 00:39:56;;;;;;;8.05;3.85;;;;;;;;;;5054333;28;20496;-81
2023/05/20 00:42:23;;;;;;;9.27;4.07;;;;;;;;;;5055702;28;20053;-82
2023/05/20 00:44:50;;;;;;;14.32;4.40;;;;;;;;;;5057505;28;20059;-82
2023/05/20 00:47:17;;;;;;;8.95;3.85;;;;;;;;;;5056474;28;21722;-82
2023/05/20 00:49:44;;;;;;;10.50;3.60;;;;;;;;;;5056847;28;20522;-82
2023/05/20 00:52:10;;;;;;;7.07;3.50;;;;;;;;;;5074897;28;20089;-81
2023/05/20 00:54:37;;;;;;;9.32;3.80;;;;;;;;;;5059075;28;20044;-82
2023/05/20 00:57:05;;;;;;;11.80;4.30;;;;;;;;;;5056897;28;21111;-81
2023/05/20 00:59:32;;;;;;;11.18;4.15;;;;;;;;;;5058515;28;20068;-81
2023/05/20 01:01:58;;;;;;;13.93;4.30;;;;;;;;;;5039896;28;20408;-81
2023/05/20 01:04:24;;;;;;;9.63;3.90;;;;;;;;;;5060311;28;20048;-81
2023/05/20 01:06:51;;;;;;;12.23;3.97;;;;;;;;;;5039866;28;20044;-81
2023/05/20 01:09:17;;;;;;;17.08;3.90;;;;;;;;;;5042069;28;20359;-82
2023/05/20 01:12:08;;;;;;;9.43;4.47;;;;;;;;;;5056224;28;20414;-81
2023/05/20 01:14:35;;;;;;;10.88;4.18;;;;;;;;;;5050746;28;20048;-80
2023/05/20 01:17:09;;;;;;;10.02;4.00;;;;;;;;;;5040123;28;20037;-81
2023/05/20 01:19:38;;;;;;;11.77;3.33;;;;;;;;;;5058508;28;20318;-81
2023/05/20 01:22:06;;;;;;;9.00;3.92;;;;;;;;;;5057186;28;22002;-81
2023/05/20 01:24:32;;;;;;;9.68;4.05;;;;;;;;;;5058167;28;20433;-81
2023/05/20 01:26:59;;;;;;;9.07;3.67;;;;;;;;;;5041542;28;20037;-81
2023/05/20 01:29:25;;;;;;;7.25;3.72;;;;;;;;;;5038582;28;20055;-81
2023/05/20 01:31:53;;;;;;;6.97;3.53;;;;;;;;;;5055262;28;20048;-81
2023/05/20 01:34:19;;;;;;;10.27;3.85;;;;;;;;;;5039885;28;20048;-81
2023/05/20 01:36:46;;;;;;;8.18;3.17;;;;;;;;;;5052093;28;20104;-81
2023/05/20 01:39:12;;;;;;;7.90;4.03;;;;;;;;;;5041637;28;20040;-81
2023/05/20 01:41:39;;;;;;;7.82;3.40;;;;;;;;;;5042014;28;20484;-81
2023/05/20 01:44:05;;;;;;;7.38;3.30;;;;;;;;;;5053965;28;20074;-82
2023/05/20 01:46:34;;;;;;;12.23;3.38;;;;;;;;;;5041837;28;20127;-81
2023/05/20 01:49:00;;;;;;;8.43;3.55;;;;;;;;;;5051356;28;20077;-81
2023/05/20 01:51:26;;;;;;;9.98;3.30;;;;;;;;;;5063063;28;20055;-81
2023/05/20 01:53:52;;;;;;;10.93;3.35;;;;;;;;;;5055816;28;20051;-81
2023/05/20 01:56:19;;;;;;;6.72;3.00;;;;;;;;;;5041705;28;20059;-82
2023/05/20 01:58:45;;;;;;;9.02;3.30;;;;;;;;;;5044140;28;20047;-82
2023/05/20 02:01:11;;;;;;;7.22;3.67;;;;;;;;;;5047918;28;20485;-82
2023/05/20 02:03:37;;;;;;;8.07;2.97;;;;;;;;;;5056579;28;20044;-82
2023/05/20 02:06:03;;;;;;;4.47;3.00;;;;;;;;;;5054962;28;20044;-82
2023/05/20 02:08:29;;;;;;;7.18;2.90;;;;;;;;;;5056233;28;20088;-82
2023/05/20 02:10:55;;;;;;;5.72;2.80;;;;;;;;;;5043046;28;20048;-81
2023/05/20 02:13:21;;;;;;;7.75;4.00;;;;;;;;;;5054710;28;20142;-81
2023/05/20 02:15:47;;;;;;;7.80;2.75;;;;;;;;;;5044848;28;20063;-81
2023/05/20 02:18:17;;;;;;;5.35;2.67;;;;;;;;;;5052511;28;20575;-81
2023/05/20 02:20:43;;;;;;;12.15;3.20;;;;;;;;;;5056387;28;20170;-81
2023/05/20 02:23:09;;;;;;;4.55;2.67;;;;;;;;;;5073602;28;20044;-81
2023/05/20 02:25:35;;;;;;;6.65;3.38;;;;;;;;;;5055050;28;20167;-82
2023/05/20 02:28:04;;;;;;;4.90;2.88;;;;;;;;;;5035449;28;20129;-82
2023/05/20 02:30:31;;;;;;;5.35;2.95;;;;;;;;;;5042901;28;20044;-82
2023/05/20 02:32:57;;;;;;;5.25;2.97;;;;;;;;;;5055600;28;20043;-82
2023/05/20 02:35:23;;;;;;;6.68;2.78;;;;;;;;;;5053615;28;20559;-82
2023/05/20 02:37:49;;;;;;;9.77;3.28;;;;;;;;;;5051832;28;22945;-82
2023/05/20 02:40:16;;;;;;;5.68;2.97;;;;;;;;;;5052000;28;20067;-82
2023/05/20 02:42:42;;;;;;;6.95;2.80;;;;;;;;;;5040719;28;20325;-81
2023/05/20 02:45:08;;;;;;;6.25;3.38;;;;;;;;;;5056166;28;20441;-82
2023/05/20 02:47:34;;;;;;;10.90;3.15;;;;;;;;;;5054558;28;20513;-82
2023/05/20 02:50:00;;;;;;;6.40;2.60;;;;;;;;;;5040544;28;20044;-82
2023/05/20 02:52:27;;;;;;;6.20;2.83;;;;;;;;;;5052485;28;20065;-81
2023/05/20 02:54:53;;;;;;;6.15;2.58;;;;;;;;;;5054892;28;22449;-81
2023/05/20 02:57:19;;;;;;;5.68;2.50;;;;;;;;;;5043185;28;20070;-81
2023/05/20 02:59:45;;;;;;;6.80;2.92;;;;;;;;;;5056808;28;20044;-82
2023/05/20 03:02:11;;;;;;;7.53;2.42;;;;;;;;;;5057599;28;20036;-82
2023/05/20 03:04:37;;;;;;;5.18;2.22;;;;;;;;;;5046265;28;20169;-82
2023/05/20 03:07:07;;;;;;;4.88;2.10;;;;;;;;;;5057904;28;20048;-82
2023/05/20 03:09:33;;;;;;;5.38;2.05;;;;;;;;;;5057889;28;20044;-82
2023/05/20 03:12:00;;;;;;;15.00;2.85;;;;;;;;;;5056632;28;20086;-81
2023/05/20 03:14:26;;;;;;;7.18;2.05;;;;;;;;;;5058312;28;20326;-81
2023/05/20 03:16:54;;;;;;;4.00;2.10;;;;;;;;;;5059732;28;20052;-81
2023/05/20 03:19:21;;;;;;;6.35;2.17;;;;;;;;;;5059547;28;20511;-81
2023/05/20 03:21:47;;;;;;;5.25;2.25;;;;;;;;;;5054664;28;20078;-81
2023/05/20 03:24:13;;;;;;;4.22;2.05;;;;;;;;;;5060547;28;20041;-81
2023/05/20 03:26:42;;;;;;;2.75;1.77;;;;;;;;;;5043150;28;20075;-81
2023/05/20 03:29:08;;;;;;;4.15;2.10;;;;;;;;;;5027527;28;20048;-81
2023/05/20 03:31:34;;;;;;;4.50;1.85;;;;;;;;;;5042038;28;20046;-81
2023/05/20 03:34:00;;;;;;;8.27;2.00;;;;;;;;;;5065912;28;20571;-80
2023/05/20 03:36:27;;;;;;;3.72;1.90;;;;;;;;;;5071585;28;21330;-81
2023/05/20 03:38:53;;;;;;;6.85;1.90;;;;;;;;;;5055230;28;20071;-81
2023/05/20 03:41:19;;;;;;;3.83;1.80;;;;;;;;;;5039846;28;20032;-81
2023/05/20 03:43:45;;;;;;;4.30;1.85;;;;;;;;;;5043939;28;20532;-81
2023/05/20 03:46:12;;;;;;;4.25;1.70;;;;;;;;;;5056212;28;20055;-81
2023/05/20 03:48:38;;;;;;;3.13;1.52;;;;;;;;;;5043933;28;20043;-81
2023/05/20 03:51:04;;;;;;;3.78;1.70;;;;;;;;;;5070319;28;20044;-81
2023/05/20 03:53:30;;;;;;;6.10;1.90;;;;;;;;;;5073055;28;20419;-82
2023/05/20 03:55:56;;;;;;;4.68;1.92;;;;;;;;;;5075279;28;20633;-82
2023/05/20 03:58:22;;;;;;;2.75;1.65;;;;;;;;;;5067697;28;22043;-82
2023/05/20 04:00:48;;;;;;;3.55;1.40;;;;;;;;;;5070671;28;20047;-82
2023/05/20 04:03:14;;;;;;;2.45;1.50;;;;;;;;;;5066981;28;20036;-82
2023/05/20 04:05:40;;;;;;;4.63;1.80;;;;;;;;;;5050903;28;20040;-81
2023/05/20 04:08:08;;;;;;;5.00;1.70;;;;;;;;;;5068464;28;20051;-82
2023/05/20 04:10:35;;;;;;;2.92;1.42;;;;;;;;;;5054872;28;20067;-80
2023/05/20 04:13:01;;;;;;;4.07;1.40;;;;;;;;;;5068020;28;20138;-81
2023/05/20 04:15:28;;;;;;;5.25;1.73;;;;;;;;;;5059810;28;20731;-81
2023/05/20 04:17:55;;;;;;;2.47;1.30;;;;;;;;;;5048882;28;20044;-82
2023/05/20 04:20:21;;;;;;;4.55;1.63;;;;;;;;;;5069234;28;20048;-81
2023/05/20 04:22:47;;;;;;;2.22;1.52;;;;;;;;;;5072134;28;21351;-81
2023/05/20 04:25:13;;;;;;;3.17;1.50;;;;;;;;;;5039411;28;20036;-81
2023/05/20 04:27:39;;;;;;;5.28;1.50;;;;;;;;;;5052553;28;20040;-81
2023/05/20 04:30:06;;;;;;;2.80;1.50;;;;;;;;;;5070745;28;20040;-82
2023/05/20 04:32:36;;;;;;;2.75;1.40;;;;;;;;;;5071305;28;20043;-82
2023/05/20 04:35:06;;;;;;;6.53;1.35;;;;;;;;;;5058444;28;20045;-82
2023/05/20 04:37:33;;;;;;;3.78;1.60;;;;;;;;;;5071350;28;20101;-81
2023/05/20 04:40:05;;;;;;;3.38;1.30;;;;;;;;;;5059432;28;20079;-82
2023/05/20 04:42:32;;;;;;;4.72;1.42;;;;;;;;;;5070511;28;20064;-82
2023/05/20 04:45:00;;;;;;;2.28;1.38;;;;;;;;;;5056098;28;20478;-82
2023/05/20 04:47:30;;;;;;;2.80;1.58;;;;;;;;;;5055051;28;20100;-81
2023/05/20 04:49:57;;;;;;;3.65;1.50;;;;;;;;;;5076513;28;20071;-82
2023/05/20 04:52:24;;;;;;;1.45;1.10;;;;;;;;;;5078404;28;20075;-82
2023/05/20 04:54:51;;;;;;;1.90;1.48;;;;;;;;;;5074970;28;20051;-82
2023/05/20 04:57:19;;;;;;;4.72;1.42;;;;;;;;;;5052349;28;20048;-81
2023/05/20 04:59:46;;;;;;;4.32;1.73;;;;;;;;;;5068273;28;20036;-81
2023/05/20 05:02:13;;;;;;;17.38;2.08;;;;;;;;;;5071603;28;20033;-82
2023/05/20 05:04:39;;;;;;;3.05;1.30;;;;;;;;;;5055988;28;20043;-81
2023/05/20 05:07:06;;;;;;;2.30;1.35;;;;;;;;;;5077973;28;20032;-82
2023/05/20 05:09:35;;;;;;;1.63;1.10;;;;;;;;;;5062338;28;20127;-81
2023/05/20 05:12:01;;;;;;;2.60;1.40;;;;;;;;;;5045549;28;20051;-81
2023/05/20 05:14:27;;;;;;;4.75;1.40;;;;;;;;;;5062010;28;20043;-82
2023/05/20 05:16:53;;;;;;;3.03;1.45;;;;;;;;;;5048861;28;20036;-81
2023/05/20 05:19:19;;;;;;;2.20;1.30;;;;;;;;;;5056243;28;20134;-80
2023/05/20 05:21:47;;;;;;;5.15;1.85;;;;;;;;;;5061682;28;20795;-81
2023/05/20 05:24:13;;;;;;;2.42;1.30;;;;;;;;;;5060716;28;20103;-80
2023/05/20 05:26:39;;;;;;;2.85;1.33;;;;;;;;;;5061699;28;20074;-81
2023/05/20 05:29:05;;;;;;;2.25;1.25;;;;;;;;;;5060659;28;20040;-81
2023/05/20 05:31:31;;;;;;;3.50;1.30;;;;;;;;;;5066224;28;20174;-81
2023/05/20 05:33:57;;;;;;;4.18;1.77;;;;;;;;;;5068229;28;20043;-81
2023/05/20 05:36:24;;;;;;;4.10;1.25;;;;;;;;;;5068750;28;20075;-81
2023/05/20 05:38:51;;;;;;;4.72;1.45;;;;;;;;;;5071396;28;20208;-81
2023/05/20 05:41:17;;;;;;;3.90;1.67;;;;;;;;;;5085063;28;20039;-81
2023/05/20 05:43:43;;;;;;;1.92;1.40;;;;;;;;;;5066754;28;20136;-81
2023/05/20 05:46:09;;;;;;;15.07;1.70;;;;;;;;;;5050921;28;20051;-80
2023/05/20 05:48:36;;;;;;;5.18;1.48;;;;;;;;;;5068539;28;20113;-80
2023/05/20 05:51:02;;;;;;;2.20;1.25;;;;;;;;;;5082059;28;20040;-81
2023/05/20 05:53:28;;;;;;;2.70;1.35;;;;;;;;;;5064233;28;20659;-80
2023/05/20 05:55:54;;;;;;;2.80;1.60;;;;;;;;;;5065237;28;20036;-81
2023/05/20 05:58:20;;;;;;;3.30;1.20;;;;;;;;;;5044704;28;20048;-81
2023/05/20 06:00:46;;;;;;;3.35;1.40;;;;;;;;;;5062688;28;20901;-81
2023/05/20 06:03:12;;;;;;;2.60;1.38;;;;;;;;;;5065613;28;20032;-81
2023/05/20 06:05:39;;;;;;;5.38;1.40;;;;;;;;;;5060000;28;20044;-81
2023/05/20 06:08:05;;;;;;;7.10;1.60;;;;;;;;;;5064263;28;20122;-83
2023/05/20 06:10:31;;;;;;;2.92;1.35;;;;;;;;;;5053049;28;20044;-82
2023/05/20 06:12:57;;;;;;;2.70;1.48;;;;;;;;;;5063788;28;20122;-79
2023/05/20 06:15:23;;;;;;;3.17;1.98;;;;;;;;;;5052616;28;20044;-79
2023/05/20 06:17:49;;;;;;;4.30;1.63;;;;;;;;;;5067506;28;20048;-79
2023/05/20 06:20:15;;;;;;;6.03;1.67;;;;;;;;;;5039998;28;20049;-79
2023/05/20 06:22:41;;;;;;;4.43;1.65;;;;;;;;;;5059736;28;20033;-80
2023/05/20 06:25:08;;;;;;;2.40;1.65;;;;;;;;;;5070766;28;20051;-80
2023/05/20 06:27:34;;;;;;;3.33;2.00;;;;;;;;;;5065389;28;20058;-82
2023/05/20 06:30:00;;;;;;;3.83;1.70;;;;;;;;;;5057079;28;20048;-80
2023/05/20 06:32:26;;;;;;;3.13;1.55;;;;;;;;;;5078694;28;20469;-81
2023/05/20 06:34:52;;;;;;;7.38;1.92;;;;;;;;;;5080487;28;20122;-81
2023/05/20 06:37:18;;;;;;;5.30;1.63;;;;;;;;;;5060816;28;20583;-81
2023/05/20 06:39:46;;;;;;;3.38;1.50;;;;;;;;;;5071909;28;20092;-81
2023/05/20 06:42:12;;;;;;;6.78;1.88;;;;;;;;;;5056241;28;21350;-80
2023/05/20 06:44:38;;;;;;;1.63;1.20;;;;;;;;;;5063177;28;20041;-82
2023/05/20 06:47:05;;;;;;;4.95;1.70;;;;;;;;;;5078130;28;20518;-81
2023/05/20 06:49:31;;;;;;;4.80;1.80;;;;;;;;;;5075144;28;20040;-80
2023/05/20 06:51:57;;;;;;;3.53;1.70;;;;;;;;;;5079208;28;20554;-80
2023/05/20 06:54:23;;;;;;;7.97;1.70;;;;;;;;;;5073305;28;20055;-81
2023/05/20 06:56:49;;;;;;;5.00;1.65;;;;;;;;;;5071019;28;20073;-81
2023/05/20 06:59:15;;;;;;;2.05;1.40;;;;;;;;;;5072214;28;20036;-81
2023/05/20 07:01:41;;;;;;;3.05;1.77;;;;;;;;;;5073517;28;20130;-82
2023/05/20 07:04:07;;;;;;;4.63;1.40;;;;;;;;;;5071382;28;20044;-80
2023/05/20 07:06:34;;;;;;;3.60;1.58;;;;;;;;;;5073295;28;20073;-73
2023/05/20 07:09:00;;;;;;;2.55;1.40;;;;;;;;;;5057199;28;20051;-72
2023/05/20 07:11:26;;;;;;;6.57;1.52;;;;;;;;;;5059759;28;20070;-72
2023/05/20 07:13:52;;;;;;;3.03;1.30;;;;;;;;;;5055157;28;20156;-72
2023/05/20 07:16:18;;;;;;;3.78;1.40;;;;;;;;;;5054618;28;20044;-72
2023/05/20 07:18:44;;;;;;;5.18;1.63;;;;;;;;;;5073102;27;20048;-72
2023/05/20 07:21:10;;;;;;;8.55;2.25;;;;;;;;;;5058520;28;20044;-74
2023/05/20 07:23:36;;;;;;;4.13;1.52;;;;;;;;;;5057403;28;20056;-73
2023/05/20 07:26:03;;;;;;;4.80;1.63;;;;;;;;;;5057184;28;20973;-72
2023/05/20 07:28:29;;;;;;;3.03;1.27;;;;;;;;;;5041036;28;20891;-72
2023/05/20 07:30:56;;;;;;;3.45;1.65;;;;;;;;;;5057366;28;20148;-72
2023/05/20 07:33:22;;;;;;;3.78;1.63;;;;;;;;;;5059567;28;20683;-72
2023/05/20 07:35:49;;;;;;;4.03;1.42;;;;;;;;;;5057339;28;21361;-72
2023/05/20 07:38:15;;;;;;;3.65;1.77;;;;;;;;;;5059149;28;20380;-72
2023/05/20 07:40:42;;;;;;;5.78;1.80;;;;;;;;;;5063879;28;20040;-78
2023/05/20 07:43:08;;;;;;;3.78;1.48;;;;;;;;;;5073068;28;20412;-79
2023/05/20 07:45:38;;;;;;;4.88;1.60;;;;;;;;;;5070960;28;20052;-80
2023/05/20 07:48:07;;;;;;;2.63;1.52;;;;;;;;;;5068487;28;20048;-80
2023/05/20 07:50:33;;;;;;;2.60;1.27;;;;;;;;;;5069948;28;20051;-80
2023/05/20 07:52:59;;;;;;;3.95;1.45;;;;;;;;;;5079680;28;20044;-79
2023/05/20 07:55:25;;;;;;;4.07;1.42;;;;;;;;;;5060633;28;20039;-80
2023/05/20 07:57:52;;;;;;;3.58;2.05;;;;;;;;;;5046985;28;20203;-80
2023/05/20 08:00:18;;;;;;;3.50;1.52;;;;;;;;;;5045520;28;21678;-80
2023/05/20 08:02:44;;;;;;;4.57;1.65;;;;;;;;;;5069819;28;20044;-81
2023/05/20 08:05:10;;;;;;;2.65;1.42;;;;;;;;;;5063530;28;20036;-80
2023/05/20 08:07:36;;;;;;;8.90;1.42;;;;;;;;;;5062727;28;20036;-80
2023/05/20 08:10:02;;;;;;;1.77;1.20;;;;;;;;;;5060795;28;20050;-81
2023/05/20 08:12:28;;;;;;;2.97;1.45;;;;;;;;;;5062502;28;20571;-81
2023/05/20 08:14:55;;;;;;;1.63;1.10;;;;;;;;;;5062558;28;20117;-81
2023/05/20 08:17:21;;;;;;;4.65;1.50;;;;;;;;;;5064750;28;20076;-80
2023/05/20 08:19:47;;;;;;;2.33;1.23;;;;;;;;;;5062293;28;20043;-81
2023/05/20 08:22:13;;;;;;;5.03;1.30;;;;;;;;;;5062445;28;20044;-80
2023/05/20 08:24:39;;;;;;;4.05;1.38;;;;;;;;;;5063221;28;20126;-80
2023/05/20 08:27:05;;;;;;;3.15;1.20;;;;;;;;;;5063871;28;20117;-81
2023/05/20 08:29:32;;;;;;;2.78;1.20;;;;;;;;;;5064111;28;20039;-80
2023/05/20 08:31:58;;;;;;;4.15;1.10;;;;;;;;;;5078248;28;20052;-81
2023/05/20 08:34:24;;;;;;;3.85;1.30;;;;;;;;;;5064184;28;20048;-81
2023/05/20 08:36:50;;;;;;;3.78;1.48;;;;;;;;;;5048387;28;20065;-80
2023/05/20 08:39:16;;;;;;;1.52;0.90;;;;;;;;;;5048367;28;20596;-81
2023/05/20 08:41:43;;;;;;;3.63;1.38;;;;;;;;;;5045257;28;20118;-81
2023/05/20 08:44:10;;;;;;;2.53;1.45;;;;;;;;;;5061642;28;20542;-81
2023/05/20 08:46:36;;;;;;;3.90;1.10;;;;;;;;;;5062393;28;20048;-81
2023/05/20 08:49:02;;;;;;;3.42;1.38;;;;;;;;;;5062001;28;21055;-81
2023/05/20 08:51:29;;;;;;;2.47;1.40;;;;;;;;;;5076325;28;20404;-81
2023/05/20 08:53:55;;;;;;;2.97;1.48;;;;;;;;;;5043423;28;20043;-81
2023/05/20 08:56:22;;;;;;;2.20;1.23;;;;;;;;;;5059846;28;20079;-81
2023/05/20 08:58:48;;;;;;;2.85;1.20;;;;;;;;;;5042933;28;20052;-81
2023/05/20 09:01:14;;;;;;;3.05;1.30;;;;;;;;;;5059180;28;20038;-81
2023/05/20 09:03:40;;;;;;;1.65;1.20;;;;;;;;;;5062773;28;20496;-81
2023/05/20 09:06:07;;;;;;;6.97;1.55;;;;;;;;;;5061652;28;20044;-81
2023/05/20 09:08:33;;;;;;;6.10;2.05;;;;;;;;;;5068254;28;20123;-81
2023/05/20 09:11:00;;;;;;;2.65;1.25;;;;;;;;;;5059887;28;20040;-81
2023/05/20 09:13:27;;;;;;;2.80;1.50;;;;;;;;;;5076029;28;20051;-81
2023/05/20 09:15:53;;;;;;;2.65;1.15;;;;;;;;;;5060350;28;20598;-80
2023/05/20 09:18:20;;;;;;;3.10;1.42;;;;;;;;;;5040975;28;20055;-80
2023/05/20 09:20:47;;;;;;;2.72;1.45;;;;;;;;;;5060349;28;20052;-80
2023/05/20 09:23:13;;;;;;;5.25;1.73;;;;;;;;;;5058877;28;20504;-81
2023/05/20 09:25:40;;;;;;;5.35;1.65;;;;;;;;;;5059390;28;20074;-80
2023/05/20 09:28:07;;;;;;;7.75;1.40;;;;;;;;;;5059774;28;20032;-81
2023/05/20 09:30:33;;;;;;;2.25;1.08;;;;;;;;;;5057957;28;20054;-80
2023/05/20 09:33:00;;;;;;;2.63;1.88;;;;;;;;;;5056107;28;20172;-81
2023/05/20 09:35:27;;;;;;;8.02;1.45;;;;;;;;;;5041192;28;20194;-81
2023/05/20 09:37:53;;;;;;;4.25;1.67;;;;;;;;;;5070633;28;20067;-81
2023/05/20 09:40:25;;;;;;;6.65;2.30;;;;;;;;;;5022718;28;20468;-81
2023/05/20 09:43:02;;;;;;;5.88;1.92;;;;;;;;;;5056866;28;20435;-82
2023/05/20 09:45:28;;;;;;;6.57;2.08;;;;;;;;;;5055588;28;20044;-81
2023/05/20 09:47:55;;;;;;;3.40;1.52;;;;;;;;;;5055478;28;20421;-81
2023/05/20 09:50:22;;;;;;;3.03;1.50;;;;;;;;;;5057208;28;20127;-82
2023/05/20 09:52:49;;;;;;;3.63;1.60;;;;;;;;;;5056967;28;20049;-81
2023/05/20 09:55:16;;;;;;;3.58;1.88;;;;;;;;;;5056573;28;20067;-80
2023/05/20 09:57:43;;;;;;;2.47;1.58;;;;;;;;;;5057645;28;20098;-81
2023/05/20 10:00:12;;;;;;;7.10;1.65;;;;;;;;;;5055849;28;20567;-81
2023/05/20 10:02:38;;;;;;;5.95;1.77;;;;;;;;;;5056728;28;20040;-81
2023/05/20 10:05:07;;;;;;;4.88;2.00;;;;;;;;;;5055353;28;20040;-81
2023/05/20 10:07:33;;;;;;;9.55;2.13;;;;;;;;;;5060500;28;20135;-81
2023/05/20 10:10:02;;;;;;;4.13;1.95;;;;;;;;;;5044642;28;20086;-80
2023/05/20 10:12:31;;;;;;;5.38;1.85;;;;;;;;;;5057089;28;20136;-79
2023/05/20 10:15:16;;;;;;;3.03;1.80;;;;;;;;;;5046523;28;20044;-76
2023/05/20 10:18:02;;;;;;;5.53;2.45;;;;;;;;;;5069111;28;20523;-76
2023/05/20 10:20:29;;;;;;;8.25;2.13;;;;;;;;;;5053917;28;20055;-76
2023/05/20 10:22:58;;;;;;;3.60;2.03;;;;;;;;;;5068491;28;20047;-78
2023/05/20 10:25:25;;;;;;;10.40;2.38;;;;;;;;;;5067166;28;20040;-75
2023/05/20 10:27:51;;;;;;;8.63;2.25;;;;;;;;;;5059629;28;20075;-77
2023/05/20 10:30:21;;;;;;;5.22;1.75;;;;;;;;;;5077101;28;20131;-77
2023/05/20 10:32:59;;;;;;;4.03;2.30;;;;;;;;;;5038631;28;20048;-77
2023/05/20 10:35:26;;;;;;;5.32;2.58;;;;;;;;;;5059219;28;20054;-82
2023/05/20 10:37:53;;;;;;;6.78;2.35;;;;;;;;;;5068161;28;20051;-81
2023/05/20 10:40:20;;;;;;;9.60;2.08;;;;;;;;;;5069140;28;20044;-81
2023/05/20 10:42:47;;;;;;;6.53;2.08;;;;;;;;;;5066829;28;20526;-81
2023/05/20 10:45:24;;;;;;;6.32;2.30;;;;;;;;;;5050795;28;20478;-82
2023/05/20 10:47:55;;;;;;;6.18;2.40;;;;;;;;;;5065873;28;20052;-81
2023/05/20 10:50:35;;;;;;;8.90;2.30;;;;;;;;;;5033886;28;20051;-82
2023/05/20 10:53:05;;;;;;;8.68;2.63;;;;;;;;;;5073542;28;20108;-82
2023/05/20 10:55:37;;;;;;;6.22;2.63;;;;;;;;;;5065955;28;20048;-82
2023/05/20 10:58:04;;;;;;;6.13;2.33;;;;;;;;;;5076036;28;20052;-82
2023/05/20 11:00:31;;;;;;;6.38;2.65;;;;;;;;;;5058919;28;20055;-83
2023/05/20 11:02:57;;;;;;;5.72;2.58;;;;;;;;;;5074561;28;20048;-82
2023/05/20 11:05:23;;;;;;;7.53;2.65;;;;;;;;;;5075974;28;20051;-83
2023/05/20 11:07:50;;;;;;;7.78;2.63;;;;;;;;;;5058872;28;20960;-83
2023/05/20 11:10:16;;;;;;;7.40;2.70;;;;;;;;;;5073550;28;20044;-83
2023/05/20 11:12:42;;;;;;;7.13;2.92;;;;;;;;;;5060960;28;20124;-83
2023/05/20 11:15:12;;;;;;;6.10;2.72;;;;;;;;;;5076618;28;20484;-82
2023/05/20 11:17:38;;;;;;;8.82;2.50;;;;;;;;;;5079901;28;20139;-83
2023/05/20 11:20:04;;;;;;;5.68;2.75;;;;;;;;;;5080803;28;20533;-83
2023/05/20 11:22:30;;;;;;;9.35;3.00;;;;;;;;;;5062822;28;20126;-83
2023/05/20 11:24:56;;;;;;;9.02;2.28;;;;;;;;;;5077066;28;20040;-81
2023/05/20 11:27:22;;;;;;;6.55;2.60;;;;;;;;;;5070478;28;20040;-83
2023/05/20 11:29:49;;;;;;;6.72;2.50;;;;;;;;;;5095980;28;20048;-83
2023/05/20 11:32:18;;;;;;;11.18;3.08;;;;;;;;;;5066891;28;20044;-84
2023/05/20 11:34:44;;;;;;;9.50;3.00;;;;;;;;;;5077923;28;20127;-82
2023/05/20 11:37:11;;;;;;;6.97;2.83;;;;;;;;;;5068089;28;20048;-77
2023/05/20 11:39:38;;;;;;;7.10;2.92;;;;;;;;;;5059275;28;20154;-78
2023/05/20 11:42:05;;;;;;;9.32;3.50;;;;;;;;;;5066852;28;20048;-77
2023/05/20 11:44:31;;;;;;;9.43;3.03;;;;;;;;;;5045877;28;20044;-77
2023/05/20 11:47:01;;;;;;;7.15;3.00;;;;;;;;;;5066214;28;20068;-77
2023/05/20 11:49:27;;;;;;;6.50;3.05;;;;;;;;;;5062388;28;20051;-78
2023/05/20 11:51:53;;;;;;;12.10;3.00;;;;;;;;;;5063989;28;20135;-77
2023/05/20 11:54:21;;;;;;;8.52;2.90;;;;;;;;;;5046567;28;20052;-76
2023/05/20 11:56:47;;;;;;;6.47;2.70;;;;;;;;;;5061033;28;20105;-77
2023/05/20 11:59:14;;;;;;;5.60;2.97;;;;;;;;;;5061284;28;20056;-76
2023/05/20 12:01:40;;;;;;;7.75;3.08;;;;;;;;;;5069820;28;20032;-77
2023/05/20 12:04:06;;;;;;;6.43;3.17;;;;;;;;;;5080525;27;20032;-77
2023/05/20 12:06:33;;;;;;;9.48;3.20;;;;;;;;;;5064449;28;20048;-77
2023/05/20 12:09:05;;;;;;;7.85;3.42;;;;;;;;;;5050946;28;20047;-78
2023/05/20 12:11:34;;;;;;;10.63;3.50;;;;;;;;;;5064494;28;20522;-77
2023/05/20 12:14:00;;;;;;;14.68;3.40;;;;;;;;;;5060824;28;20083;-77
2023/05/20 12:16:26;;;;;;;8.95;3.22;;;;;;;;;;5064126;28;20044;-77
2023/05/20 12:18:52;;;;;;;6.38;3.45;;;;;;;;;;5062604;28;20141;-77
2023/05/20 12:21:18;;;;;;;9.98;3.17;;;;;;;;;;5063886;28;20055;-77
2023/05/20 12:23:45;;;;;;;6.72;3.28;;;;;;;;;;5062264;28;20570;-77
2023/05/20 12:26:11;;;;;;;9.30;3.80;;;;;;;;;;5078739;28;20052;-77
2023/05/20 12:28:37;;;;;;;7.57;3.35;;;;;;;;;;5079342;27;20052;-77
2023/05/20 12:31:03;;;;;;;10.40;3.38;;;;;;;;;;5063209;28;20481;-77
2023/05/20 12:33:29;;;;;;;5.57;3.47;;;;;;;;;;5049127;28;20055;-77
2023/05/20 12:35:55;;;;;;;7.03;3.15;;;;;;;;;;5058444;28;20044;-76
2023/05/20 12:38:21;;;;;;;8.73;3.63;;;;;;;;;;5060264;28;20062;-78
2023/05/20 12:43:36;;;;;;;6.50;3.17;;;;;;;;;;5063168;28;20067;-78
2023/05/20 12:46:02;;;;;;;9.07;3.70;;;;;;;;;;5063962;28;20040;-76
2023/05/20 12:48:28;;;;;;;13.82;3.58;;;;;;;;;;5066905;28;20429;-76
2023/05/20 12:50:54;;;;;;;18.05;4.00;;;;;;;;;;5060616;28;20032;-77
2023/05/20 12:53:20;;;;;;;11.43;4.15;;;;;;;;;;5060241;28;21721;-76
2023/05/20 12:55:47;;;;;;;14.38;4.15;;;;;;;;;;5040372;28;20051;-78
2023/05/20 12:58:13;;;;;;;12.27;4.15;;;;;;;;;;5061222;28;20055;-78
2023/05/20 13:00:39;;;;;;;11.38;3.40;;;;;;;;;;5060647;28;20109;-77
2023/05/20 13:03:08;;;;;;;9.10;3.22;;;;;;;;;;5060746;28;20199;-78
2023/05/20 13:05:34;;;;;;;7.68;3.17;;;;;;;;;;5042001;28;20051;-78
2023/05/20 13:08:00;;;;;;;7.88;3.25;;;;;;;;;;5042652;28;20048;-77
2023/05/20 13:10:29;;;;;;;10.57;3.20;;;;;;;;;;5060966;28;20048;-78
2023/05/20 13:12:56;;;;;;;5.63;3.53;;;;;;;;;;5043541;28;20048;-79
2023/05/20 13:15:23;;;;;;;10.38;3.28;;;;;;;;;;5060223;28;20049;-78
2023/05/20 13:17:49;;;;;;;7.30;2.90;;;;;;;;;;5061891;28;20128;-77
2023/05/20 13:20:15;;;;;;;6.93;3.50;;;;;;;;;;5043128;28;20101;-77
2023/05/20 13:22:41;;;;;;;11.32;3.65;;;;;;;;;;5058578;28;20569;-76
2023/05/20 13:25:08;;;;;;;7.72;3.00;;;;;;;;;;5043369;28;20127;-77
2023/05/20 13:27:34;;;;;;;10.05;3.30;;;;;;;;;;5042260;28;20060;-77
2023/05/20 13:30:01;;;;;;;7.38;2.65;;;;;;;;;;5058609;28;20717;-76
2023/05/20 13:32:27;;;;;;;3.65;2.00;;;;;;;;;;5041325;28;20151;-78
2023/05/20 13:34:55;;;;;;;4.07;2.20;;;;;;;;;;5058328;28;20068;-77
2023/05/20 13:37:21;;;;;;;4.30;1.98;;;;;;;;;;5045014;28;20062;-76
2023/05/20 13:39:48;;;;;;;8.35;2.03;;;;;;;;;;5072656;28;20051;-76
2023/05/20 13:42:14;;;;;;;5.78;2.10;;;;;;;;;;5059546;28;20048;-77
2023/05/20 13:44:40;;;;;;;4.63;2.17;;;;;;;;;;5063039;28;20218;-77
2023/05/20 13:47:06;;;;;;;3.92;2.35;;;;;;;;;;5051687;28;20471;-77
2023/05/20 13:49:32;;;;;;;6.72;2.40;;;;;;;;;;5041120;28;20465;-78
2023/05/20 13:51:58;;;;;;;5.38;2.10;;;;;;;;;;5038871;28;20114;-79
2023/05/20 13:54:25;;;;;;;6.00;2.00;;;;;;;;;;5045581;28;20059;-78
2023/05/20 13:56:52;;;;;;;4.90;2.10;;;;;;;;;;5029579;28;20048;-79
2023/05/20 13:59:18;;;;;;;3.63;1.55;;;;;;;;;;5052816;28;20875;-78
2023/05/20 14:01:45;;;;;;;4.43;2.15;;;;;;;;;;5051814;28;20158;-77
2023/05/20 14:04:11;;;;;;;7.50;2.50;;;;;;;;;;5052540;28;20054;-78
2023/05/20 14:06:38;;;;;;;4.35;2.70;;;;;;;;;;5052597;28;20808;-77
2023/05/20 14:09:07;;;;;;;4.65;2.25;;;;;;;;;;5052740;28;20043;-77
2023/05/20 14:11:33;;;;;;;5.72;2.90;;;;;;;;;;5054033;28;21509;-77
2023/05/20 14:13:59;;;;;;;5.00;2.40;;;;;;;;;;5054465;28;20047;-77
2023/05/20 14:16:25;;;;;;;7.32;2.70;;;;;;;;;;5054461;28;20253;-77
2023/05/20 14:18:51;;;;;;;5.70;2.85;;;;;;;;;;5054270;28;20070;-77
2023/05/20 14:21:18;;;;;;;10.52;3.20;;;;;;;;;;5072629;28;20487;-77
2023/05/20 14:23:44;;;;;;;4.80;3.03;;;;;;;;;;5054520;28;20058;-77
2023/05/20 14:26:10;;;;;;;5.18;2.47;;;;;;;;;;5071178;28;20048;-77
2023/05/20 14:28:37;;;;;;;11.57;2.63;;;;;;;;;;5057850;28;20121;-76
2023/05/20 14:31:04;;;;;;;4.65;2.10;;;;;;;;;;5052989;28;21124;-78
2023/05/20 14:33:30;;;;;;;6.35;2.70;;;;;;;;;;5055105;28;20160;-77
2023/05/20 14:35:56;;;;;;;4.38;2.55;;;;;;;;;;5054890;28;20148;-77
2023/05/20 14:38:22;;;;;;;4.00;2.85;;;;;;;;;;5056861;28;20036;-77
2023/05/20 14:40:48;;;;;;;6.05;2.67;;;;;;;;;;5052169;28;20675;-77